Broome, Australia
Current Conditions -  °F | °C
As of 10:00 AM on Tuesday 23 Dec 2014 (Local Time) from YBRM Reporting Station
Few Clouds Few Clouds  
Wind Chill: 90°   Ceiling: Unl
Heat Index: 102°   Visibility: 6mi
Dew Point: 77°   Wind: 12mph
Humidity: 66%   Direction: 260°W
Pressure: 29.77"   Gusts: NA
Location:  17.57°S, 122.22°E
Report Text: YBRM 230200Z 26010KT 9999 FEW026 32/25 Q1008
Loading
Personal Weather Stations






























Interactive Weather Map New forecast layout! Learn more

10-Day Weather Forecast

Advertisements
Track Severe Weather on mobile